^^
Station Historical Data
Daily Summary for June 15, 2017 Units:  Both    English   Metric
« Previous Day
Next Day »
Daily Weekly Monthly Yearly Custom
  High: Low: Average:
Temperature: 73.9 °F /  23.3 °C 45.3 °F /  7.4 °C 57.8 °F /  14.3 °C
Dew Point: 39.0 °F /  3.9 °C 30.4 °F /  -0.9 °C 33.6 °F /  0.9 °C
Humidity: 66% 22% 43%
Wind Speed: 6.0mph /  9.7km/h - 0.4mph /  0.6km/h
Wind Gust: 8.0mph /  12.9km/h - -
Wind- - South
Pressure: 30.34 in /  1027.3 hPa 30.24 in /  1023.9 hPa -
Precipitation: 0.00 in /  0 mm    
Historical Graphs
 
 
Tabular Data for June 15, 2017
Time Temperature Dew Point Pressure Wind Wind Speed Wind Gust Humidity Rainfall Rate (Hourly) solar Conditions
00:02 47.5 °F /  8.6 °C 33.8 °F /  1 °C 30.32in /  1026.6hPa Calm     59% 0.00in /  0mm 0.0 W/m2
00:08 47.1 °F /  8.4 °C 34.0 °F /  1.1 °C 30.32in /  1026.6hPa Calm     60% 0.00in /  0mm 0.0 W/m2
00:14 46.9 °F /  8.3 °C 33.8 °F /  1 °C 30.32in /  1026.6hPa Calm     60% 0.00in /  0mm 0.0 W/m2
00:20 46.9 °F /  8.3 °C 33.8 °F /  1 °C 30.32in /  1026.6hPa Calm   1.0mph /  1.6km/h 60% 0.00in /  0mm 0.0 W/m2
00:26 46.9 °F /  8.3 °C 33.8 °F /  1 °C 30.31in /  1026.3hPa Calm     60% 0.00in /  0mm 0.0 W/m2
00:33 46.9 °F /  8.3 °C 34.2 °F /  1.2 °C 30.31in /  1026.3hPa Calm     61% 0.00in /  0mm 0.0 W/m2
00:39 46.9 °F /  8.3 °C 33.8 °F /  1 °C 30.31in /  1026.3hPa Calm     60% 0.00in /  0mm 0.0 W/m2
00:45 47.1 °F /  8.4 °C 34.0 °F /  1.1 °C 30.31in /  1026.3hPa Calm     60% 0.00in /  0mm 0.0 W/m2
00:51 47.3 °F /  8.5 °C 34.2 °F /  1.2 °C 30.31in /  1026.3hPa Calm   2.0mph /  3.2km/h 60% 0.00in /  0mm 0.0 W/m2
00:57 47.7 °F /  8.7 °C 34.5 °F /  1.4 °C 30.31in /  1026.3hPa Calm   2.0mph /  3.2km/h 60% 0.00in /  0mm 0.0 W/m2
01:03 47.8 °F /  8.8 °C 33.8 °F /  1 °C 30.31in /  1026.3hPa Calm   3.0mph /  4.8km/h 58% 0.00in /  0mm 0.0 W/m2
01:09 48.0 °F /  8.9 °C 34.0 °F /  1.1 °C 30.31in /  1026.3hPa ESE 0.9mph /  1.4km/h 2.0mph /  3.2km/h 58% 0.00in /  0mm 0.0 W/m2
01:15 48.2 °F /  9 °C 34.2 °F /  1.2 °C 30.31in /  1026.3hPa Calm   1.0mph /  1.6km/h 58% 0.00in /  0mm 0.0 W/m2
01:22 48.4 °F /  9.1 °C 34.3 °F /  1.3 °C 30.31in /  1026.3hPa Calm   4.0mph /  6.4km/h 58% 0.00in /  0mm 0.0 W/m2
01:28 48.4 °F /  9.1 °C 34.3 °F /  1.3 °C 30.31in /  1026.3hPa Calm   1.0mph /  1.6km/h 58% 0.00in /  0mm 0.0 W/m2
01:34 48.0 °F /  8.9 °C 34.0 °F /  1.1 °C 30.30in /  1026hPa Calm   1.0mph /  1.6km/h 58% 0.00in /  0mm 0.0 W/m2
01:40 47.8 °F /  8.8 °C 33.8 °F /  1 °C 30.30in /  1026hPa Calm   1.0mph /  1.6km/h 58% 0.00in /  0mm 0.0 W/m2
01:46 47.8 °F /  8.8 °C 33.8 °F /  1 °C 30.30in /  1026hPa Calm   2.0mph /  3.2km/h 58% 0.00in /  0mm 0.0 W/m2
01:52 47.7 °F /  8.7 °C 34.0 °F /  1.1 °C 30.30in /  1026hPa Calm   1.0mph /  1.6km/h 59% 0.00in /  0mm 0.0 W/m2
01:58 47.5 °F /  8.6 °C 33.8 °F /  1 °C 30.30in /  1026hPa Calm   2.0mph /  3.2km/h 59% 0.00in /  0mm 0.0 W/m2
02:04 47.3 °F /  8.5 °C 33.6 °F /  0.9 °C 30.30in /  1026hPa ESE 2.0mph /  3.2km/h 3.0mph /  4.8km/h 59% 0.00in /  0mm 0.0 W/m2
02:10 47.1 °F /  8.4 °C 33.4 °F /  0.8 °C 30.30in /  1026hPa Calm   1.0mph /  1.6km/h 59% 0.00in /  0mm 0.0 W/m2
02:17 47.1 °F /  8.4 °C 34.0 °F /  1.1 °C 30.30in /  1026hPa Calm     60% 0.00in /  0mm 0.0 W/m2
02:23 47.1 °F /  8.4 °C 34.0 °F /  1.1 °C 30.30in /  1026hPa Calm     60% 0.00in /  0mm 0.0 W/m2
02:29 47.1 °F /  8.4 °C 33.4 °F /  0.8 °C 30.30in /  1026hPa Calm     59% 0.00in /  0mm 0.0 W/m2
02:35 47.1 °F /  8.4 °C 34.0 °F /  1.1 °C 30.30in /  1026hPa Calm     60% 0.00in /  0mm 0.0 W/m2
02:41 46.9 °F /  8.3 °C 33.8 °F /  1 °C 30.30in /  1026hPa Calm     60% 0.00in /  0mm 0.0 W/m2
02:47 46.8 °F /  8.2 °C 34.0 °F /  1.1 °C 30.30in /  1026hPa Calm     61% 0.00in /  0mm 0.0 W/m2
02:53 46.6 °F /  8.1 °C 33.8 °F /  1 °C 30.29in /  1025.6hPa Calm     61% 0.00in /  0mm 0.0 W/m2
02:59 46.2 °F /  7.9 °C 33.4 °F /  0.8 °C 30.29in /  1025.6hPa Calm     61% 0.00in /  0mm 0.0 W/m2
03:05 46.0 °F /  7.8 °C 33.8 °F /  1 °C 30.29in /  1025.6hPa Calm     62% 0.00in /  0mm 0.0 W/m2
03:12 46.0 °F /  7.8 °C 33.8 °F /  1 °C 30.29in /  1025.6hPa Calm     62% 0.00in /  0mm 0.0 W/m2
03:18 46.0 °F /  7.8 °C 33.8 °F /  1 °C 30.29in /  1025.6hPa Calm   1.0mph /  1.6km/h 62% 0.00in /  0mm 0.0 W/m2
03:24 45.9 °F /  7.7 °C 33.6 °F /  0.9 °C 30.29in /  1025.6hPa Calm     62% 0.00in /  0mm 0.0 W/m2
03:30 45.9 °F /  7.7 °C 34.0 °F /  1.1 °C 30.29in /  1025.6hPa Calm   4.0mph /  6.4km/h 63% 0.00in /  0mm 0.0 W/m2
03:36 45.7 °F /  7.6 °C 33.8 °F /  1 °C 30.30in /  1026hPa Calm   1.0mph /  1.6km/h 63% 0.00in /  0mm 0.0 W/m2
03:42 45.7 °F /  7.6 °C 33.4 °F /  0.8 °C 30.29in /  1025.6hPa Calm   1.0mph /  1.6km/h 62% 0.00in /  0mm 0.0 W/m2
03:48 45.5 °F /  7.5 °C 33.6 °F /  0.9 °C 30.30in /  1026hPa Calm   1.0mph /  1.6km/h 63% 0.00in /  0mm 0.0 W/m2
03:54 45.5 °F /  7.5 °C 34.0 °F /  1.1 °C 30.30in /  1026hPa Calm     64% 0.00in /  0mm 0.0 W/m2
04:00 45.3 °F /  7.4 °C 33.4 °F /  0.8 °C 30.30in /  1026hPa Calm   1.0mph /  1.6km/h 63% 0.00in /  0mm 0.0 W/m2
04:06 45.3 °F /  7.4 °C 33.8 °F /  1 °C 30.30in /  1026hPa Calm   1.0mph /  1.6km/h 64% 0.00in /  0mm 0.0 W/m2
04:12 45.5 °F /  7.5 °C 34.0 °F /  1.1 °C 30.30in /  1026hPa Calm     64% 0.00in /  0mm 0.0 W/m2
04:18 45.7 °F /  7.6 °C 33.8 °F /  1 °C 30.30in /  1026hPa Calm     63% 0.00in /  0mm 0.0 W/m2
04:24 45.9 °F /  7.7 °C 34.0 °F /  1.1 °C 30.30in /  1026hPa Calm   1.0mph /  1.6km/h 63% 0.00in /  0mm 0.0 W/m2
04:30 45.7 °F /  7.6 °C 33.8 °F /  1 °C 30.30in /  1026hPa Calm   1.0mph /  1.6km/h 63% 0.00in /  0mm 0.0 W/m2
04:36 45.9 °F /  7.7 °C 34.0 °F /  1.1 °C 30.30in /  1026hPa Calm   2.0mph /  3.2km/h 63% 0.00in /  0mm 0.0 W/m2
04:42 45.9 °F /  7.7 °C 34.0 °F /  1.1 °C 30.30in /  1026hPa Calm     63% 0.00in /  0mm 0.0 W/m2
04:48 45.9 °F /  7.7 °C 34.0 °F /  1.1 °C 30.29in /  1025.6hPa Calm   3.0mph /  4.8km/h 63% 0.00in /  0mm 0.0 W/m2
04:54 45.9 °F /  7.7 °C 34.0 °F /  1.1 °C 30.30in /  1026hPa Calm   1.0mph /  1.6km/h 63% 0.00in /  0mm 0.0 W/m2
05:00 45.9 °F /  7.7 °C 34.0 °F /  1.1 °C 30.30in /  1026hPa Calm   2.0mph /  3.2km/h 63% 0.00in /  0mm 0.0 W/m2
05:06 45.9 °F /  7.7 °C 34.0 °F /  1.1 °C 30.30in /  1026hPa Calm     63% 0.00in /  0mm 0.0 W/m2
05:12 45.9 °F /  7.7 °C 34.0 °F /  1.1 °C 30.30in /  1026hPa Calm   2.0mph /  3.2km/h 63% 0.00in /  0mm 0.0 W/m2
05:18 45.9 °F /  7.7 °C 34.3 °F /  1.3 °C 30.30in /  1026hPa Calm     64% 0.00in /  0mm 0.0 W/m2
05:24 46.0 °F /  7.8 °C 34.2 °F /  1.2 °C 30.30in /  1026hPa Calm   2.0mph /  3.2km/h 63% 0.00in /  0mm 0.0 W/m2
05:30 46.0 °F /  7.8 °C 34.2 °F /  1.2 °C 30.30in /  1026hPa Calm   2.0mph /  3.2km/h 63% 0.00in /  0mm 0.0 W/m2
05:36 46.2 °F /  7.9 °C 34.3 °F /  1.3 °C 30.31in /  1026.3hPa Calm   3.0mph /  4.8km/h 63% 0.00in /  0mm 0.0 W/m2
05:42 46.2 °F /  7.9 °C 34.3 °F /  1.3 °C 30.31in /  1026.3hPa Calm     63% 0.00in /  0mm 0.0 W/m2
05:48 46.0 °F /  7.8 °C 34.2 °F /  1.2 °C 30.31in /  1026.3hPa Calm   1.0mph /  1.6km/h 63% 0.00in /  0mm 0.0 W/m2
05:54 45.9 °F /  7.7 °C 34.0 °F /  1.1 °C 30.31in /  1026.3hPa Calm   2.0mph /  3.2km/h 63% 0.00in /  0mm 0.0 W/m2
06:00 45.7 °F /  7.6 °C 34.2 °F /  1.2 °C 30.32in /  1026.6hPa Calm     64% 0.00in /  0mm 0.0 W/m2
06:06 45.7 °F /  7.6 °C 34.2 °F /  1.2 °C 30.32in /  1026.6hPa Calm   1.0mph /  1.6km/h 64% 0.00in /  0mm 0.0 W/m2
06:12 45.5 °F /  7.5 °C 34.0 °F /  1.1 °C 30.32in /  1026.6hPa Calm   2.0mph /  3.2km/h 64% 0.00in /  0mm 0.0 W/m2
06:18 45.7 °F /  7.6 °C 34.2 °F /  1.2 °C 30.32in /  1026.6hPa Calm   3.0mph /  4.8km/h 64% 0.00in /  0mm 0.0 W/m2
06:24 45.9 °F /  7.7 °C 34.3 °F /  1.3 °C 30.32in /  1026.6hPa Calm   2.0mph /  3.2km/h 64% 0.00in /  0mm 0.0 W/m2
06:30 45.9 °F /  7.7 °C 34.0 °F /  1.1 °C 30.32in /  1026.6hPa SE 0.9mph /  1.4km/h 1.0mph /  1.6km/h 63% 0.00in /  0mm 0.0 W/m2
06:36 46.0 °F /  7.8 °C 34.5 °F /  1.4 °C 30.32in /  1026.6hPa Calm     64% 0.00in /  0mm 5.0 W/m2
06:42 46.0 °F /  7.8 °C 34.2 °F /  1.2 °C 30.32in /  1026.6hPa Calm   1.0mph /  1.6km/h 63% 0.00in /  0mm 9.0 W/m2
06:48 45.9 °F /  7.7 °C 34.3 °F /  1.3 °C 30.32in /  1026.6hPa Calm     64% 0.00in /  0mm 11.0 W/m2
06:54 45.7 °F /  7.6 °C 34.2 °F /  1.2 °C 30.32in /  1026.6hPa Calm     64% 0.00in /  0mm 12.0 W/m2
07:00 45.3 °F /  7.4 °C 34.3 °F /  1.3 °C 30.32in /  1026.6hPa Calm     65% 0.00in /  0mm 14.0 W/m2
07:06 45.3 °F /  7.4 °C 34.7 °F /  1.5 °C 30.32in /  1026.6hPa Calm   2.0mph /  3.2km/h 66% 0.00in /  0mm 16.0 W/m2
07:18 45.9 °F /  7.7 °C 35.1 °F /  1.7 °C 30.33in /  1027hPa Calm   1.0mph /  1.6km/h 66% 0.00in /  0mm 18.0 W/m2
07:24 46.2 °F /  7.9 °C 35.1 °F /  1.7 °C 30.33in /  1027hPa Calm     65% 0.00in /  0mm 19.0 W/m2
07:30 46.4 °F /  8 °C 34.9 °F /  1.6 °C 30.33in /  1027hPa Calm     64% 0.00in /  0mm 21.0 W/m2
07:36 46.6 °F /  8.1 °C 35.8 °F /  2.1 °C 30.33in /  1027hPa Calm     66% 0.00in /  0mm 23.0 W/m2
07:42 46.8 °F /  8.2 °C 36.0 °F /  2.2 °C 30.33in /  1027hPa Calm     66% 0.00in /  0mm 25.0 W/m2
07:48 47.5 °F /  8.6 °C 36.7 °F /  2.6 °C 30.33in /  1027hPa Calm     66% 0.00in /  0mm 26.0 W/m2
07:54 49.6 °F /  9.8 °C 37.6 °F /  3.1 °C 30.33in /  1027hPa Calm   1.0mph /  1.6km/h 63% 0.00in /  0mm 213.0 W/m2
08:00 51.6 °F /  10.9 °C 38.1 °F /  3.4 °C 30.33in /  1027hPa Calm     60% 0.00in /  0mm 267.0 W/m2
08:06 54.1 °F /  12.3 °C 38.8 °F /  3.8 °C 30.33in /  1027hPa Calm     56% 0.00in /  0mm 288.0 W/m2
08:12 56.3 °F /  13.5 °C 38.5 °F /  3.6 °C 30.34in /  1027.3hPa Calm     51% 0.00in /  0mm 308.0 W/m2
08:18 57.6 °F /  14.2 °C 39.0 °F /  3.9 °C 30.34in /  1027.3hPa SE 0.9mph /  1.4km/h 2.0mph /  3.2km/h 50% 0.00in /  0mm 325.0 W/m2
08:24 59.4 °F /  15.2 °C 38.7 °F /  3.7 °C 30.34in /  1027.3hPa Calm     46% 0.00in /  0mm 343.0 W/m2
08:30 61.0 °F /  16.1 °C 38.8 °F /  3.8 °C 30.34in /  1027.3hPa ESE 0.9mph /  1.4km/h 5.0mph /  8km/h 44% 0.00in /  0mm 364.0 W/m2
08:36 62.2 °F /  16.8 °C 38.3 °F /  3.5 °C 30.34in /  1027.3hPa Calm   3.0mph /  4.8km/h 41% 0.00in /  0mm 381.0 W/m2
08:42 63.0 °F /  17.2 °C 37.6 °F /  3.1 °C 30.34in /  1027.3hPa Calm   3.0mph /  4.8km/h 39% 0.00in /  0mm 401.0 W/m2
08:48 63.3 °F /  17.4 °C 37.9 °F /  3.3 °C 30.34in /  1027.3hPa South 2.9mph /  4.7km/h 6.0mph /  9.7km/h 39% 0.00in /  0mm 417.0 W/m2
08:54 63.5 °F /  17.5 °C 37.4 °F /  3 °C 30.34in /  1027.3hPa Calm   2.0mph /  3.2km/h 38% 0.00in /  0mm 434.0 W/m2
09:00 63.9 °F /  17.7 °C 37.8 °F /  3.2 °C 30.34in /  1027.3hPa SSW 0.9mph /  1.4km/h 3.0mph /  4.8km/h 38% 0.00in /  0mm 452.0 W/m2
09:06 64.0 °F /  17.8 °C 37.2 °F /  2.9 °C 30.34in /  1027.3hPa West 0.9mph /  1.4km/h 6.0mph /  9.7km/h 37% 0.00in /  0mm 469.0 W/m2
09:12 64.4 °F /  18 °C 36.9 °F /  2.7 °C 30.34in /  1027.3hPa SSW 2.9mph /  4.7km/h 6.0mph /  9.7km/h 36% 0.00in /  0mm 482.0 W/m2
09:18 64.9 °F /  18.3 °C 36.7 °F /  2.6 °C 30.34in /  1027.3hPa West 2.0mph /  3.2km/h 4.0mph /  6.4km/h 35% 0.00in /  0mm 497.0 W/m2
09:24 64.9 °F /  18.3 °C 36.7 °F /  2.6 °C 30.33in /  1027hPa Calm   2.0mph /  3.2km/h 35% 0.00in /  0mm 512.0 W/m2
09:30 65.5 °F /  18.6 °C 37.8 °F /  3.2 °C 30.33in /  1027hPa Calm   2.0mph /  3.2km/h 36% 0.00in /  0mm 526.0 W/m2
09:36 66.6 °F /  19.2 °C 36.5 °F /  2.5 °C 30.33in /  1027hPa Calm   1.0mph /  1.6km/h 33% 0.00in /  0mm 538.0 W/m2
09:42 67.3 °F /  19.6 °C 37.2 °F /  2.9 °C 30.33in /  1027hPa Calm   2.0mph /  3.2km/h 33% 0.00in /  0mm 554.0 W/m2
09:48 68.0 °F /  20 °C 37.0 °F /  2.8 °C 30.33in /  1027hPa Calm     32% 0.00in /  0mm 564.0 W/m2
09:54 68.7 °F /  20.4 °C 36.9 °F /  2.7 °C 30.33in /  1027hPa West 0.9mph /  1.4km/h 3.0mph /  4.8km/h 31% 0.00in /  0mm 577.0 W/m2
10:00 68.5 °F /  20.3 °C 36.7 °F /  2.6 °C 30.33in /  1027hPa Calm   4.0mph /  6.4km/h 31% 0.00in /  0mm 585.0 W/m2
10:06 68.4 °F /  20.2 °C 36.5 °F /  2.5 °C 30.33in /  1027hPa SSW 0.9mph /  1.4km/h 3.0mph /  4.8km/h 31% 0.00in /  0mm 596.0 W/m2
10:12 68.2 °F /  20.1 °C 37.2 °F /  2.9 °C 30.33in /  1027hPa Calm   3.0mph /  4.8km/h 32% 0.00in /  0mm 606.0 W/m2
10:18 68.7 °F /  20.4 °C 36.9 °F /  2.7 °C 30.33in /  1027hPa North 2.0mph /  3.2km/h 4.0mph /  6.4km/h 31% 0.00in /  0mm 621.0 W/m2
10:24 69.6 °F /  20.9 °C 36.0 °F /  2.2 °C 30.33in /  1027hPa Calm   4.0mph /  6.4km/h 29% 0.00in /  0mm 629.0 W/m2
10:30 70.3 °F /  21.3 °C 35.6 °F /  2 °C 30.32in /  1026.6hPa NNW 2.9mph /  4.7km/h 4.0mph /  6.4km/h 28% 0.00in /  0mm 636.0 W/m2
10:36 70.7 °F /  21.5 °C 36.0 °F /  2.2 °C 30.32in /  1026.6hPa NE 4.0mph /  6.4km/h 6.0mph /  9.7km/h 28% 0.00in /  0mm 645.0 W/m2
10:42 70.9 °F /  21.6 °C 35.2 °F /  1.8 °C 30.32in /  1026.6hPa ESE 4.0mph /  6.4km/h 7.0mph /  11.3km/h 27% 0.00in /  0mm 652.0 W/m2
10:48 71.2 °F /  21.8 °C 34.5 °F /  1.4 °C 30.32in /  1026.6hPa ESE 0.9mph /  1.4km/h 7.0mph /  11.3km/h 26% 0.00in /  0mm 661.0 W/m2
10:54 71.2 °F /  21.8 °C 34.5 °F /  1.4 °C 30.32in /  1026.6hPa ENE 2.0mph /  3.2km/h 6.0mph /  9.7km/h 26% 0.00in /  0mm 664.0 W/m2
11:00 71.4 °F /  21.9 °C 34.7 °F /  1.5 °C 30.32in /  1026.6hPa NE 0.9mph /  1.4km/h 6.0mph /  9.7km/h 26% 0.00in /  0mm 671.0 W/m2
11:06 71.8 °F /  22.1 °C 35.1 °F /  1.7 °C 30.32in /  1026.6hPa ENE 2.0mph /  3.2km/h 8.0mph /  12.9km/h 26% 0.00in /  0mm 675.0 W/m2
11:12 71.8 °F /  22.1 °C 35.1 °F /  1.7 °C 30.32in /  1026.6hPa North 4.9mph /  7.9km/h 7.0mph /  11.3km/h 26% 0.00in /  0mm 680.0 W/m2
11:18 72.0 °F /  22.2 °C 35.2 °F /  1.8 °C 30.32in /  1026.6hPa NE 0.9mph /  1.4km/h 6.0mph /  9.7km/h 26% 0.00in /  0mm 682.0 W/m2
11:24 72.1 °F /  22.3 °C 35.4 °F /  1.9 °C 30.31in /  1026.3hPa Calm   4.0mph /  6.4km/h 26% 0.00in /  0mm 687.0 W/m2
11:30 72.5 °F /  22.5 °C 34.7 °F /  1.5 °C 30.31in /  1026.3hPa North 4.0mph /  6.4km/h 6.0mph /  9.7km/h 25% 0.00in /  0mm 689.0 W/m2
11:36 72.3 °F /  22.4 °C 34.5 °F /  1.4 °C 30.31in /  1026.3hPa Calm   5.0mph /  8km/h 25% 0.00in /  0mm 691.0 W/m2
11:42 72.3 °F /  22.4 °C 35.6 °F /  2 °C 30.31in /  1026.3hPa NNE 4.0mph /  6.4km/h 6.0mph /  9.7km/h 26% 0.00in /  0mm 691.0 W/m2
11:48 72.3 °F /  22.4 °C 35.6 °F /  2 °C 30.30in /  1026hPa Calm   5.0mph /  8km/h 26% 0.00in /  0mm 689.0 W/m2
11:54 72.1 °F /  22.3 °C 35.4 °F /  1.9 °C 30.30in /  1026hPa NNW 2.0mph /  3.2km/h 7.0mph /  11.3km/h 26% 0.00in /  0mm 689.0 W/m2
12:00 72.3 °F /  22.4 °C 34.5 °F /  1.4 °C 30.29in /  1025.6hPa Calm   5.0mph /  8km/h 25% 0.00in /  0mm 689.0 W/m2
12:06 72.3 °F /  22.4 °C 35.6 °F /  2 °C 30.29in /  1025.6hPa Calm   5.0mph /  8km/h 26% 0.00in /  0mm 684.0 W/m2
12:12 72.7 °F /  22.6 °C 35.8 °F /  2.1 °C 30.29in /  1025.6hPa ENE 0.9mph /  1.4km/h 8.0mph /  12.9km/h 26% 0.00in /  0mm 686.0 W/m2
12:18 72.7 °F /  22.6 °C 34.9 °F /  1.6 °C 30.29in /  1025.6hPa ENE 2.0mph /  3.2km/h 6.0mph /  9.7km/h 25% 0.00in /  0mm 680.0 W/m2
12:24 73.0 °F /  22.8 °C 35.1 °F /  1.7 °C 30.29in /  1025.6hPa SE 2.0mph /  3.2km/h 3.0mph /  4.8km/h 25% 0.00in /  0mm 677.0 W/m2
12:30 73.2 °F /  22.9 °C 34.3 °F /  1.3 °C 30.28in /  1025.3hPa NE 0.9mph /  1.4km/h 6.0mph /  9.7km/h 24% 0.00in /  0mm 671.0 W/m2
12:36 73.0 °F /  22.8 °C 35.1 °F /  1.7 °C 30.28in /  1025.3hPa Calm     25% 0.00in /  0mm 668.0 W/m2
12:42 72.9 °F /  22.7 °C 36.0 °F /  2.2 °C 30.27in /  1024.9hPa West 0.9mph /  1.4km/h 1.0mph /  1.6km/h 26% 0.00in /  0mm 657.0 W/m2
12:48 72.5 °F /  22.5 °C 34.7 °F /  1.5 °C 30.27in /  1024.9hPa North 2.9mph /  4.7km/h 4.0mph /  6.4km/h 25% 0.00in /  0mm 652.0 W/m2
12:55 72.5 °F /  22.5 °C 34.7 °F /  1.5 °C 30.27in /  1024.9hPa Calm   4.0mph /  6.4km/h 25% 0.00in /  0mm 643.0 W/m2
13:01 72.9 °F /  22.7 °C 35.1 °F /  1.7 °C 30.27in /  1024.9hPa NE 0.9mph /  1.4km/h 3.0mph /  4.8km/h 25% 0.00in /  0mm 636.0 W/m2
13:07 73.2 °F /  22.9 °C 35.2 °F /  1.8 °C 30.26in /  1024.6hPa NW 6.0mph /  9.7km/h 7.0mph /  11.3km/h 25% 0.00in /  0mm 629.0 W/m2
13:13 73.4 °F /  23 °C 34.3 °F /  1.3 °C 30.26in /  1024.6hPa Calm   3.0mph /  4.8km/h 24% 0.00in /  0mm 615.0 W/m2
13:19 73.6 °F /  23.1 °C 34.5 °F /  1.4 °C 30.26in /  1024.6hPa Calm     24% 0.00in /  0mm 612.0 W/m2
13:25 72.9 °F /  22.7 °C 35.1 °F /  1.7 °C 30.26in /  1024.6hPa Calm   5.0mph /  8km/h 25% 0.00in /  0mm 601.0 W/m2
13:31 72.7 °F /  22.6 °C 34.9 °F /  1.6 °C 30.26in /  1024.6hPa Calm   5.0mph /  8km/h 25% 0.00in /  0mm 594.0 W/m2
13:39 72.3 °F /  22.4 °C 35.6 °F /  2 °C 30.25in /  1024.3hPa SSE 2.0mph /  3.2km/h 3.0mph /  4.8km/h 26% 0.00in /  0mm 577.0 W/m2
13:46 72.3 °F /  22.4 °C 35.6 °F /  2 °C 30.25in /  1024.3hPa Calm   3.0mph /  4.8km/h 26% 0.00in /  0mm 561.0 W/m2
13:52 72.5 °F /  22.5 °C 35.6 °F /  2 °C 30.25in /  1024.3hPa WSW 0.9mph /  1.4km/h 3.0mph /  4.8km/h 26% 0.00in /  0mm 547.0 W/m2
13:58 72.7 °F /  22.6 °C 35.8 °F /  2.1 °C 30.25in /  1024.3hPa Calm   1.0mph /  1.6km/h 26% 0.00in /  0mm 536.0 W/m2
14:04 72.9 °F /  22.7 °C 35.1 °F /  1.7 °C 30.25in /  1024.3hPa Calm   1.0mph /  1.6km/h 25% 0.00in /  0mm 524.0 W/m2
14:10 73.2 °F /  22.9 °C 34.3 °F /  1.3 °C 30.25in /  1024.3hPa NW 4.0mph /  6.4km/h 5.0mph /  8km/h 24% 0.00in /  0mm 517.0 W/m2
14:16 73.6 °F /  23.1 °C 34.5 °F /  1.4 °C 30.25in /  1024.3hPa NNW 2.0mph /  3.2km/h 6.0mph /  9.7km/h 24% 0.00in /  0mm 496.0 W/m2
14:22 73.8 °F /  23.2 °C 34.7 °F /  1.5 °C 30.25in /  1024.3hPa North 4.0mph /  6.4km/h 8.0mph /  12.9km/h 24% 0.00in /  0mm 480.0 W/m2
14:28 73.8 °F /  23.2 °C 33.6 °F /  0.9 °C 30.24in /  1023.9hPa Calm   3.0mph /  4.8km/h 23% 0.00in /  0mm 466.0 W/m2
14:34 73.8 °F /  23.2 °C 33.6 °F /  0.9 °C 30.24in /  1023.9hPa WSW 0.9mph /  1.4km/h 3.0mph /  4.8km/h 23% 0.00in /  0mm 452.0 W/m2
14:40 73.9 °F /  23.3 °C 33.8 °F /  1 °C 30.24in /  1023.9hPa Calm   5.0mph /  8km/h 23% 0.00in /  0mm 441.0 W/m2
14:50 73.9 °F /  23.3 °C 32.7 °F /  0.4 °C 30.24in /  1023.9hPa NW 2.0mph /  3.2km/h 6.0mph /  9.7km/h 22% 0.00in /  0mm 413.0 W/m2
14:56 73.8 °F /  23.2 °C 33.6 °F /  0.9 °C 30.24in /  1023.9hPa Calm   2.0mph /  3.2km/h 23% 0.00in /  0mm 388.0 W/m2
15:04 73.6 °F /  23.1 °C 32.4 °F /  0.2 °C 30.24in /  1023.9hPa Calm   5.0mph /  8km/h 22% 0.00in /  0mm 371.0 W/m2
15:10 73.0 °F /  22.8 °C 32.0 °F /  0 °C 30.24in /  1023.9hPa NNW 2.9mph /  4.7km/h 5.0mph /  8km/h 22% 0.00in /  0mm 339.0 W/m2
15:16 72.9 °F /  22.7 °C 31.8 °F /  -0.1 °C 30.24in /  1023.9hPa NW 0.9mph /  1.4km/h 6.0mph /  9.7km/h 22% 0.00in /  0mm 320.0 W/m2
15:23 72.7 °F /  22.6 °C 32.7 °F /  0.4 °C 30.24in /  1023.9hPa NNW 2.9mph /  4.7km/h 7.0mph /  11.3km/h 23% 0.00in /  0mm 49.0 W/m2
15:29 72.3 °F /  22.4 °C 32.4 °F /  0.2 °C 30.25in /  1024.3hPa Calm     23% 0.00in /  0mm 44.0 W/m2
15:35 72.1 °F /  22.3 °C 31.1 °F /  -0.5 °C 30.25in /  1024.3hPa WSW 0.9mph /  1.4km/h 5.0mph /  8km/h 22% 0.00in /  0mm 42.0 W/m2
15:41 71.8 °F /  22.1 °C 33.1 °F /  0.6 °C 30.25in /  1024.3hPa WSW 0.9mph /  1.4km/h 4.0mph /  6.4km/h 24% 0.00in /  0mm 40.0 W/m2
15:47 71.2 °F /  21.8 °C 32.5 °F /  0.3 °C 30.25in /  1024.3hPa Calm   1.0mph /  1.6km/h 24% 0.00in /  0mm 39.0 W/m2
15:53 71.1 °F /  21.7 °C 32.4 °F /  0.2 °C 30.25in /  1024.3hPa Calm   2.0mph /  3.2km/h 24% 0.00in /  0mm 35.0 W/m2
15:59 70.7 °F /  21.5 °C 32.2 °F /  0.1 °C 30.25in /  1024.3hPa North 2.0mph /  3.2km/h 3.0mph /  4.8km/h 24% 0.00in /  0mm 32.0 W/m2
16:05 70.3 °F /  21.3 °C 31.8 °F /  -0.1 °C 30.25in /  1024.3hPa Calm   2.0mph /  3.2km/h 24% 0.00in /  0mm 28.0 W/m2
16:09 70.2 °F /  21.2 °C 32.7 °F /  0.4 °C 30.25in /  1024.3hPa Calm   3.0mph /  4.8km/h 25% 0.00in /  0mm 26.0 W/m2
16:15 70.0 °F /  21.1 °C 32.5 °F /  0.3 °C 30.25in /  1024.3hPa Calm     25% 0.00in /  0mm 23.0 W/m2
16:21 69.4 °F /  20.8 °C 33.1 °F /  0.6 °C 30.25in /  1024.3hPa Calm     26% 0.00in /  0mm 21.0 W/m2
16:28 69.3 °F /  20.7 °C 32.0 °F /  0 °C 30.25in /  1024.3hPa Calm     25% 0.00in /  0mm 21.0 W/m2
16:34 68.7 °F /  20.4 °C 32.4 °F /  0.2 °C 30.25in /  1024.3hPa Calm     26% 0.00in /  0mm 19.0 W/m2
16:40 68.4 °F /  20.2 °C 32.2 °F /  0.1 °C 30.26in /  1024.6hPa Calm     26% 0.00in /  0mm 18.0 W/m2
16:46 68.0 °F /  20 °C 30.9 °F /  -0.6 °C 30.26in /  1024.6hPa Calm   2.0mph /  3.2km/h 25% 0.00in /  0mm 16.0 W/m2
16:52 67.8 °F /  19.9 °C 31.6 °F /  -0.2 °C 30.26in /  1024.6hPa Calm   4.0mph /  6.4km/h 26% 0.00in /  0mm 12.0 W/m2
16:58 67.5 °F /  19.7 °C 31.5 °F /  -0.3 °C 30.26in /  1024.6hPa ENE 0.9mph /  1.4km/h 2.0mph /  3.2km/h 26% 0.00in /  0mm 11.0 W/m2
17:04 67.3 °F /  19.6 °C 32.2 °F /  0.1 °C 30.26in /  1024.6hPa Calm   3.0mph /  4.8km/h 27% 0.00in /  0mm 9.0 W/m2
17:11 66.7 °F /  19.3 °C 31.6 °F /  -0.2 °C 30.27in /  1024.9hPa Calm   2.0mph /  3.2km/h 27% 0.00in /  0mm 5.0 W/m2
17:17 66.2 °F /  19 °C 31.3 °F /  -0.4 °C 30.27in /  1024.9hPa Calm   1.0mph /  1.6km/h 27% 0.00in /  0mm 0.0 W/m2
17:23 65.7 °F /  18.7 °C 31.6 °F /  -0.2 °C 30.27in /  1024.9hPa Calm     28% 0.00in /  0mm 0.0 W/m2
17:29 65.1 °F /  18.4 °C 31.3 °F /  -0.4 °C 30.27in /  1024.9hPa Calm     28% 0.00in /  0mm 0.0 W/m2
17:35 64.6 °F /  18.1 °C 32.4 °F /  0.2 °C 30.27in /  1024.9hPa Calm     30% 0.00in /  0mm 0.0 W/m2
17:41 63.9 °F /  17.7 °C 31.8 °F /  -0.1 °C 30.27in /  1024.9hPa Calm     30% 0.00in /  0mm 0.0 W/m2
17:47 63.1 °F /  17.3 °C 31.3 °F /  -0.4 °C 30.27in /  1024.9hPa Calm     30% 0.00in /  0mm 0.0 W/m2
17:54 62.4 °F /  16.9 °C 31.5 °F /  -0.3 °C 30.27in /  1024.9hPa Calm     31% 0.00in /  0mm 0.0 W/m2
18:00 61.7 °F /  16.5 °C 30.7 °F /  -0.7 °C 30.27in /  1024.9hPa Calm     31% 0.00in /  0mm 0.0 W/m2
18:06 61.0 °F /  16.1 °C 30.9 °F /  -0.6 °C 30.27in /  1024.9hPa NE 0.9mph /  1.4km/h 1.0mph /  1.6km/h 32% 0.00in /  0mm 0.0 W/m2
18:12 60.6 °F /  15.9 °C 31.3 °F /  -0.4 °C 30.28in /  1025.3hPa Calm   2.0mph /  3.2km/h 33% 0.00in /  0mm 0.0 W/m2
18:18 60.3 °F /  15.7 °C 31.1 °F /  -0.5 °C 30.28in /  1025.3hPa Calm   3.0mph /  4.8km/h 33% 0.00in /  0mm 0.0 W/m2
18:24 60.1 °F /  15.6 °C 30.9 °F /  -0.6 °C 30.28in /  1025.3hPa NNE 0.9mph /  1.4km/h 1.0mph /  1.6km/h 33% 0.00in /  0mm 0.0 W/m2
18:30 59.9 °F /  15.5 °C 30.7 °F /  -0.7 °C 30.28in /  1025.3hPa East 0.9mph /  1.4km/h 1.0mph /  1.6km/h 33% 0.00in /  0mm 0.0 W/m2
18:37 59.7 °F /  15.4 °C 30.6 °F /  -0.8 °C 30.29in /  1025.6hPa Calm   3.0mph /  4.8km/h 33% 0.00in /  0mm 0.0 W/m2
18:43 59.5 °F /  15.3 °C 30.4 °F /  -0.9 °C 30.29in /  1025.6hPa Calm   1.0mph /  1.6km/h 33% 0.00in /  0mm 0.0 W/m2
18:50 59.4 °F /  15.2 °C 30.9 °F /  -0.6 °C 30.29in /  1025.6hPa Calm     34% 0.00in /  0mm 0.0 W/m2
18:57 59.2 °F /  15.1 °C 30.7 °F /  -0.7 °C 30.29in /  1025.6hPa Calm     34% 0.00in /  0mm 0.0 W/m2
19:03 58.8 °F /  14.9 °C 31.3 °F /  -0.4 °C 30.30in /  1026hPa Calm     35% 0.00in /  0mm 0.0 W/m2
19:10 58.5 °F /  14.7 °C 30.9 °F /  -0.6 °C 30.30in /  1026hPa Calm     35% 0.00in /  0mm 0.0 W/m2
19:15 58.3 °F /  14.6 °C 31.5 °F /  -0.3 °C 30.30in /  1026hPa Calm     36% 0.00in /  0mm 0.0 W/m2
19:21 57.9 °F /  14.4 °C 31.1 °F /  -0.5 °C 30.29in /  1025.6hPa Calm     36% 0.00in /  0mm 0.0 W/m2
19:27 57.6 °F /  14.2 °C 31.5 °F /  -0.3 °C 30.30in /  1026hPa Calm     37% 0.00in /  0mm 0.0 W/m2
19:31 57.4 °F /  14.1 °C 32.0 °F /  0 °C 30.29in /  1025.6hPa Calm     38% 0.00in /  0mm 0.0 W/m2
19:37 57.0 °F /  13.9 °C 31.6 °F /  -0.2 °C 30.30in /  1026hPa Calm     38% 0.00in /  0mm 0.0 W/m2
19:42 56.7 °F /  13.7 °C 31.3 °F /  -0.4 °C 30.30in /  1026hPa Calm     38% 0.00in /  0mm 0.0 W/m2
19:48 56.1 °F /  13.4 °C 31.5 °F /  -0.3 °C 30.30in /  1026hPa Calm     39% 0.00in /  0mm 0.0 W/m2
19:56 55.8 °F /  13.2 °C 31.1 °F /  -0.5 °C 30.30in /  1026hPa Calm     39% 0.00in /  0mm 0.0 W/m2
20:02 55.6 °F /  13.1 °C 31.1 °F /  -0.5 °C 30.31in /  1026.3hPa Calm     39% 0.00in /  0mm 0.0 W/m2
20:09 55.2 °F /  12.9 °C 31.3 °F /  -0.4 °C 30.30in /  1026hPa Calm     40% 0.00in /  0mm 0.0 W/m2
20:15 54.9 °F /  12.7 °C 30.9 °F /  -0.6 °C 30.31in /  1026.3hPa Calm     40% 0.00in /  0mm 0.0 W/m2
20:21 54.5 °F /  12.5 °C 31.3 °F /  -0.4 °C 30.30in /  1026hPa Calm     41% 0.00in /  0mm 0.0 W/m2
20:27 54.1 °F /  12.3 °C 30.9 °F /  -0.6 °C 30.30in /  1026hPa Calm     41% 0.00in /  0mm 0.0 W/m2
20:33 53.8 °F /  12.1 °C 31.3 °F /  -0.4 °C 30.31in /  1026.3hPa Calm     42% 0.00in /  0mm 0.0 W/m2
20:41 53.2 °F /  11.8 °C 30.7 °F /  -0.7 °C 30.31in /  1026.3hPa Calm     42% 0.00in /  0mm 0.0 W/m2
20:47 52.9 °F /  11.6 °C 30.9 °F /  -0.6 °C 30.31in /  1026.3hPa Calm     43% 0.00in /  0mm 0.0 W/m2
20:54 52.5 °F /  11.4 °C 31.3 °F /  -0.4 °C 30.31in /  1026.3hPa Calm     44% 0.00in /  0mm 0.0 W/m2
21:02 52.3 °F /  11.3 °C 31.1 °F /  -0.5 °C 30.31in /  1026.3hPa Calm     44% 0.00in /  0mm 0.0 W/m2
21:09 52.2 °F /  11.2 °C 30.9 °F /  -0.6 °C 30.31in /  1026.3hPa Calm     44% 0.00in /  0mm 0.0 W/m2
21:16 51.8 °F /  11 °C 31.1 °F /  -0.5 °C 30.31in /  1026.3hPa Calm     45% 0.00in /  0mm 0.0 W/m2
21:22 51.4 °F /  10.8 °C 30.7 °F /  -0.7 °C 30.31in /  1026.3hPa Calm     45% 0.00in /  0mm 0.0 W/m2
21:28 51.3 °F /  10.7 °C 30.6 °F /  -0.8 °C 30.31in /  1026.3hPa Calm     45% 0.00in /  0mm 0.0 W/m2
21:34 51.3 °F /  10.7 °C 31.1 °F /  -0.5 °C 30.31in /  1026.3hPa Calm   1.0mph /  1.6km/h 46% 0.00in /  0mm 0.0 W/m2
21:40 51.1 °F /  10.6 °C 31.1 °F /  -0.5 °C 30.31in /  1026.3hPa Calm   1.0mph /  1.6km/h 46% 0.00in /  0mm 0.0 W/m2
21:47 51.1 °F /  10.6 °C 31.1 °F /  -0.5 °C 30.31in /  1026.3hPa Calm   1.0mph /  1.6km/h 46% 0.00in /  0mm 0.0 W/m2
21:53 50.9 °F /  10.5 °C 31.5 °F /  -0.3 °C 30.31in /  1026.3hPa Calm     47% 0.00in /  0mm 0.0 W/m2
21:59 50.7 °F /  10.4 °C 31.3 °F /  -0.4 °C 30.31in /  1026.3hPa Calm     47% 0.00in /  0mm 0.0 W/m2
22:05 50.5 °F /  10.3 °C 31.1 °F /  -0.5 °C 30.31in /  1026.3hPa Calm   1.0mph /  1.6km/h 47% 0.00in /  0mm 0.0 W/m2
22:11 50.5 °F /  10.3 °C 31.6 °F /  -0.2 °C 30.31in /  1026.3hPa Calm     48% 0.00in /  0mm 0.0 W/m2
22:17 50.4 °F /  10.2 °C 30.9 °F /  -0.6 °C 30.32in /  1026.6hPa Calm     47% 0.00in /  0mm 0.0 W/m2
22:23 50.2 °F /  10.1 °C 30.7 °F /  -0.7 °C 30.32in /  1026.6hPa Calm     47% 0.00in /  0mm 0.0 W/m2
22:30 50.0 °F /  10 °C 31.1 °F /  -0.5 °C 30.32in /  1026.6hPa Calm     48% 0.00in /  0mm 0.0 W/m2
22:36 49.8 °F /  9.9 °C 30.9 °F /  -0.6 °C 30.32in /  1026.6hPa Calm     48% 0.00in /  0mm 0.0 W/m2
22:42 49.6 °F /  9.8 °C 31.3 °F /  -0.4 °C 30.32in /  1026.6hPa Calm     49% 0.00in /  0mm 0.0 W/m2
22:48 49.5 °F /  9.7 °C 31.1 °F /  -0.5 °C 30.31in /  1026.3hPa Calm     49% 0.00in /  0mm 0.0 W/m2
22:54 49.3 °F /  9.6 °C 31.5 °F /  -0.3 °C 30.32in /  1026.6hPa Calm     50% 0.00in /  0mm 0.0 W/m2
23:01 48.9 °F /  9.4 °C 30.6 °F /  -0.8 °C 30.32in /  1026.6hPa Calm     49% 0.00in /  0mm 0.0 W/m2
23:07 48.6 °F /  9.2 °C 30.7 °F /  -0.7 °C 30.32in /  1026.6hPa Calm     50% 0.00in /  0mm 0.0 W/m2
23:13 48.4 °F /  9.1 °C 30.6 °F /  -0.8 °C 30.32in /  1026.6hPa Calm     50% 0.00in /  0mm 0.0 W/m2
23:19 48.0 °F /  8.9 °C 30.7 °F /  -0.7 °C 30.31in /  1026.3hPa Calm     51% 0.00in /  0mm 0.0 W/m2
23:25 48.0 °F /  8.9 °C 31.3 °F /  -0.4 °C 30.32in /  1026.6hPa Calm     52% 0.00in /  0mm 0.0 W/m2
23:31 47.7 °F /  8.7 °C 30.9 °F /  -0.6 °C 30.32in /  1026.6hPa Calm     52% 0.00in /  0mm 0.0 W/m2
23:37 47.7 °F /  8.7 °C 30.9 °F /  -0.6 °C 30.32in /  1026.6hPa Calm     52% 0.00in /  0mm 0.0 W/m2
23:43 47.5 °F /  8.6 °C 31.3 °F /  -0.4 °C 30.32in /  1026.6hPa Calm     53% 0.00in /  0mm 0.0 W/m2
23:50 47.1 °F /  8.4 °C 30.4 °F /  -0.9 °C 30.32in /  1026.6hPa Calm     52% 0.00in /  0mm 0.0 W/m2
23:56 46.9 °F /  8.3 °C 30.7 °F /  -0.7 °C 30.32in /  1026.6hPa Calm     53% 0.00in /  0mm 0.0 W/m2
Olympia, Windhoek, Namibia
Compliments of Weather Underground - 3 mb